KCMY/CMY METAR and TAF weather

Enter ICAO airport designator
Station Type Date Time Source
KCMY METAR 2020/06/06 15:35 UTC NOAA

KCMY 061535Z AUTO 07005KT 10SM SCT110 22/09 A3013 RMK AO2 T02150085


Station Type Date Time Source
KCMY Decoded METAR 2020/06/06 15:35 UTC NOAA

Sparta, Sparta / Fort McCoy Airport, WI, United States (KCMY) 43-57-30N 090-44-16W
Jun 06, 2020 - 11:35 AM EDT / 2020.06.06 1535 UTC
Wind: from the ENE (070 degrees) at 6 MPH (5 KT):0
Visibility: 10 mile(s):0
Sky conditions: partly cloudy
Temperature: 70.7 F (21.5 C)
Dew Point: 47.3 F (8.5 C)
Relative Humidity: 43%
Pressure (altimeter): 30.13 in. Hg (1020 hPa)
ob: KCMY 061535Z AUTO 07005KT 10SM SCT110 22/09 A3013 RMK AO2 T02150085
cycle: 15

Station Type Date Time Source
KCMY TAF UTC NOAA

Error!

Example: see airport list